Terminal Aerodrome Forecast
Issued by NWS

Home | Current Version | Previous Version | Text Only | Print | Product List | Glossary On
Versions: 1 2 3 4 5 6 7 8 9 10 11 12 13 14 15
000
FTUS43 KIND 291128
TAFLAF
TAF
KLAF 291128Z 2912/3012 34012KT P6SM BKN028 OVC060
     FM291400 03008KT P6SM VCSH OVC015
     FM291800 04009KT P6SM VCSH BKN045
      TEMPO 2921/3001 4SM SHRA OVC025
     FM300800 02008KT 3SM -SHRA OVC003
     FM300900 01008KT 3SM -SHRA OVC008
      AMD LTD TO CLD VIS AND WIND TIL 291300=

USA.gov is the U.S. government's official web portal to all federal, state and local government web resources and services.